createdAt,value
2022-10-05T00:00:44.911Z,2.28
2022-10-05T00:03:13.647Z,2.03
2022-10-05T00:05:41.465Z,2.55
2022-10-05T00:08:13.802Z,2.30
2022-10-05T00:10:42.260Z,2.40
2022-10-05T00:13:12.878Z,2.75
2022-10-05T00:15:40.234Z,1.88
2022-10-05T00:18:11.962Z,2.20
2022-10-05T00:20:41.242Z,2.38
2022-10-05T00:23:11.992Z,2.47
2022-10-05T00:25:39.735Z,2.25
2022-10-05T00:28:11.215Z,1.90
2022-10-05T00:30:38.667Z,2.10
2022-10-05T00:33:05.990Z,2.10
2022-10-05T00:35:35.604Z,2.50
2022-10-05T00:38:04.327Z,3.10
2022-10-05T00:40:36.504Z,2.28
2022-10-05T00:43:09.935Z,2.20
2022-10-05T00:45:38.981Z,2.22
2022-10-05T00:48:09.320Z,2.45
2022-10-05T00:50:46.801Z,2.50
2022-10-05T00:53:22.223Z,2.63
2022-10-05T00:55:54.490Z,2.60
2022-10-05T00:58:27.486Z,2.50
2022-10-05T01:00:58.508Z,2.55
2022-10-05T01:03:30.509Z,2.72
2022-10-05T01:06:04.801Z,2.67
2022-10-05T01:08:39.221Z,2.50
2022-10-05T01:11:10.571Z,2.50
2022-10-05T01:13:41.176Z,2.30
2022-10-05T01:16:11.722Z,2.70
2022-10-05T01:18:43.407Z,2.28
2022-10-05T01:21:14.469Z,2.60
2022-10-05T01:26:18.215Z,2.22
2022-10-05T01:28:48.858Z,2.53
2022-10-05T01:31:22.005Z,2.40
2022-10-05T01:33:53.214Z,2.30
2022-10-05T01:36:23.636Z,2.90
2022-10-05T01:38:55.175Z,2.75
2022-10-05T01:41:27.705Z,2.42
2022-10-05T01:43:59.246Z,2.72
2022-10-05T01:46:29.763Z,2.38
2022-10-05T01:49:11.847Z,2.50
2022-10-05T01:51:44.899Z,2.22
2022-10-05T01:54:17.876Z,2.35
2022-10-05T01:56:50.798Z,2.53
2022-10-05T01:59:25.903Z,3.50
2022-10-05T02:01:57.210Z,2.70
2022-10-05T02:04:59.873Z,2.50
2022-10-05T02:09:46.470Z,2.40
2022-10-05T02:14:43.417Z,2.90
2022-10-05T02:17:15.108Z,2.60
2022-10-05T02:19:43.358Z,2.75
2022-10-05T02:22:12.287Z,2.60
2022-10-05T02:24:41.530Z,2.67
2022-10-05T02:27:10.363Z,2.90
2022-10-05T02:29:40.598Z,3.47
2022-10-05T02:32:12.460Z,2.80
2022-10-05T02:34:40.573Z,2.38
2022-10-05T02:37:19.142Z,3.00
2022-10-05T02:39:52.355Z,2.85
2022-10-05T02:42:23.298Z,3.15
2022-10-05T02:44:55.342Z,2.70
2022-10-05T02:47:27.901Z,2.47
2022-10-05T02:50:01.422Z,2.70
2022-10-05T02:52:31.992Z,2.53
2022-10-05T02:55:02.320Z,2.63
2022-10-05T02:57:32.243Z,2.70
2022-10-05T03:00:05.010Z,2.67
2022-10-05T03:02:37.140Z,2.65
2022-10-05T03:05:08.974Z,2.95
2022-10-05T03:07:40.266Z,2.47
2022-10-05T03:10:10.374Z,2.85
2022-10-05T03:12:43.720Z,2.75
2022-10-05T03:15:16.177Z,3.08
2022-10-05T03:17:48.911Z,2.63
2022-10-05T03:20:22.447Z,3.25
2022-10-05T03:22:51.350Z,2.80
2022-10-05T03:25:32.819Z,3.40
2022-10-05T03:28:03.570Z,2.97
2022-10-05T03:30:35.490Z,2.60
2022-10-05T03:33:07.367Z,2.95
2022-10-05T03:35:36.798Z,2.83
2022-10-05T03:38:08.974Z,2.75
2022-10-05T03:40:38.715Z,2.70
2022-10-05T03:43:12.864Z,2.50
2022-10-05T03:45:46.523Z,3.05
2022-10-05T03:48:16.544Z,2.90
2022-10-05T03:50:46.462Z,3.00
2022-10-05T03:53:17.329Z,3.00
2022-10-05T03:55:48.466Z,2.88
2022-10-05T03:58:18.135Z,2.83
2022-10-05T04:00:47.165Z,2.78
2022-10-05T04:03:19.811Z,3.78
2022-10-05T04:05:50.654Z,3.42
2022-10-05T04:08:21.704Z,3.45
2022-10-05T04:13:18.042Z,3.15
2022-10-05T04:15:47.130Z,2.80
2022-10-05T04:18:20.219Z,3.38
2022-10-05T04:20:51.661Z,2.92
2022-10-05T04:23:23.504Z,2.50
2022-10-05T04:25:52.735Z,3.00
2022-10-05T04:28:31.033Z,3.20
2022-10-05T04:31:01.355Z,2.67
2022-10-05T04:33:30.135Z,3.10
2022-10-05T04:36:12.116Z,3.33
2022-10-05T04:38:45.223Z,3.17
2022-10-05T04:41:17.708Z,2.60
2022-10-05T04:43:50.628Z,2.90
2022-10-05T04:46:21.367Z,3.03
2022-10-05T04:49:04.179Z,2.90
2022-10-05T04:51:36.353Z,2.78
2022-10-05T04:54:08.009Z,2.80
2022-10-05T04:56:37.221Z,2.70
2022-10-05T04:59:11.056Z,3.55
2022-10-05T05:01:45.440Z,3.00
2022-10-05T05:04:32.135Z,2.85
2022-10-05T05:07:04.080Z,2.63
2022-10-05T05:09:43.531Z,3.00
2022-10-05T05:12:20.329Z,2.83
2022-10-05T05:14:54.931Z,3.05
2022-10-05T05:17:31.703Z,3.20
2022-10-05T05:20:06.515Z,2.65
2022-10-05T05:22:40.976Z,2.60
2022-10-05T05:25:20.200Z,2.80
2022-10-05T05:27:49.649Z,3.25
2022-10-05T05:30:22.201Z,2.72
2022-10-05T05:32:55.234Z,2.72
2022-10-05T05:35:34.506Z,2.95
2022-10-05T05:38:04.118Z,2.92
2022-10-05T05:40:34.338Z,2.80
2022-10-05T05:43:03.535Z,2.70
2022-10-05T05:45:35.842Z,2.63
2022-10-05T05:48:05.360Z,2.72
2022-10-05T05:50:42.696Z,2.53
2022-10-05T05:53:13.923Z,2.58
2022-10-05T05:55:43.443Z,2.35
2022-10-05T05:58:14.540Z,2.28
2022-10-05T06:00:43.916Z,2.45
2022-10-05T06:03:14.562Z,2.60
2022-10-05T06:05:45.421Z,2.00
2022-10-05T06:08:15.350Z,2.63
2022-10-05T06:10:44.943Z,2.10
2022-10-05T06:13:16.437Z,2.30
2022-10-05T06:15:47.248Z,2.22
2022-10-05T06:18:15.460Z,2.38
2022-10-05T06:20:46.194Z,2.15
2022-10-05T06:23:16.402Z,2.40
2022-10-05T06:25:50.263Z,2.40
2022-10-05T06:28:17.731Z,3.50
2022-10-05T06:30:49.671Z,2.88
2022-10-05T06:33:20.979Z,2.05
2022-10-05T06:35:54.773Z,2.20
2022-10-05T06:38:31.681Z,1.83
2022-10-05T06:41:04.304Z,2.05
2022-10-05T06:43:36.812Z,2.10
2022-10-05T06:46:08.080Z,2.33
2022-10-05T06:48:41.235Z,2.83
2022-10-05T06:51:13.085Z,2.00
2022-10-05T06:53:44.467Z,1.98
2022-10-05T06:56:15.858Z,2.10
2022-10-05T06:58:46.900Z,2.00
2022-10-05T07:01:16.932Z,1.98
2022-10-05T07:03:49.947Z,1.75
2022-10-05T07:06:22.288Z,1.98
2022-10-05T07:09:03.102Z,2.15
2022-10-05T07:11:43.802Z,1.95
2022-10-05T07:14:17.748Z,1.42
2022-10-05T07:16:52.013Z,2.00
2022-10-05T07:19:28.627Z,1.98
2022-10-05T07:22:01.588Z,1.77
2022-10-05T07:24:31.596Z,1.80
2022-10-05T07:27:04.130Z,1.75
2022-10-05T07:29:38.306Z,1.73
2022-10-05T07:32:12.471Z,1.73
2022-10-05T07:34:46.282Z,1.80
2022-10-05T07:37:35.939Z,1.52
2022-10-05T07:40:07.560Z,1.70
2022-10-05T07:42:51.844Z,1.73
2022-10-05T07:45:24.932Z,1.50
2022-10-05T07:47:55.025Z,1.50
2022-10-05T07:50:24.959Z,1.70
2022-10-05T07:52:56.131Z,1.90
2022-10-05T07:55:25.167Z,1.48
2022-10-05T07:57:56.742Z,2.13
2022-10-05T08:00:25.285Z,2.00
2022-10-05T08:02:54.386Z,1.90
2022-10-05T08:05:24.555Z,1.90
2022-10-05T08:07:55.299Z,2.45
2022-10-05T08:10:32.261Z,1.80
2022-10-05T08:13:06.327Z,1.73
2022-10-05T08:15:35.239Z,1.55
2022-10-05T08:18:03.642Z,1.70
2022-10-05T08:20:34.186Z,2.33
2022-10-05T08:23:03.379Z,2.00
2022-10-05T08:25:39.406Z,2.20
2022-10-05T08:28:11.243Z,1.85
2022-10-05T08:30:49.356Z,1.90
2022-10-05T08:33:18.478Z,1.80
2022-10-05T08:35:47.913Z,1.80
2022-10-05T08:38:16.861Z,1.90
2022-10-05T08:41:17.510Z,1.88
2022-10-05T08:44:05.347Z,1.80
2022-10-05T08:46:42.516Z,1.50
2022-10-05T08:49:34.907Z,1.88
2022-10-05T08:52:12.439Z,1.90
2022-10-05T08:54:47.217Z,1.80
2022-10-05T08:57:26.242Z,1.95
2022-10-05T08:59:59.353Z,2.22
2022-10-05T09:02:32.804Z,1.58
2022-10-05T09:05:14.540Z,1.63
2022-10-05T09:08:00.761Z,1.90
2022-10-05T09:10:46.091Z,1.40
2022-10-05T09:13:32.562Z,1.60
2022-10-05T09:16:08.638Z,1.50
2022-10-05T09:18:49.758Z,1.52
2022-10-05T09:21:24.871Z,1.80
2022-10-05T09:24:01.286Z,1.80
2022-10-05T09:26:43.766Z,1.88
2022-10-05T09:29:26.399Z,2.10
2022-10-05T09:32:10.754Z,1.90
2022-10-05T09:35:04.685Z,2.03
2022-10-05T09:37:59.391Z,2.10
2022-10-05T09:40:47.505Z,2.08
2022-10-05T09:43:22.137Z,2.00
2022-10-05T09:45:59.528Z,1.90
2022-10-05T09:48:44.928Z,2.15
2022-10-05T09:51:37.206Z,2.45
2022-10-05T09:54:20.850Z,1.98
2022-10-05T09:57:04.213Z,1.90
2022-10-05T09:59:56.065Z,2.03
2022-10-05T10:02:42.853Z,2.20
2022-10-05T10:05:20.060Z,1.70
2022-10-05T10:10:40.699Z,2.03
2022-10-05T10:13:23.342Z,2.22
2022-10-05T10:16:05.178Z,1.70
2022-10-05T10:18:56.458Z,1.92
2022-10-05T10:21:33.168Z,1.70
2022-10-05T10:24:04.677Z,1.90
2022-10-05T10:26:52.892Z,1.83
2022-10-05T10:31:58.720Z,2.13
2022-10-05T10:34:37.492Z,2.38
2022-10-05T10:37:20.197Z,2.08
2022-10-05T10:39:56.321Z,2.15
2022-10-05T10:42:32.938Z,2.15
2022-10-05T10:45:19.262Z,2.58
2022-10-05T10:47:54.489Z,1.95
2022-10-05T10:50:40.579Z,1.90
2022-10-05T10:53:26.730Z,2.20
2022-10-05T10:56:02.306Z,2.45
2022-10-05T10:58:45.582Z,2.10
2022-10-05T11:01:22.795Z,1.80
2022-10-05T11:03:59.442Z,2.40
2022-10-05T11:06:48.831Z,2.17
2022-10-05T11:09:31.093Z,2.20
2022-10-05T11:12:18.539Z,1.88
2022-10-05T11:14:52.757Z,2.58
2022-10-05T11:17:33.328Z,1.98
2022-10-05T11:20:26.228Z,1.85
2022-10-05T11:22:56.963Z,2.03
2022-10-05T11:25:35.777Z,2.25
2022-10-05T11:28:23.929Z,2.05
2022-10-05T11:30:58.959Z,1.75
2022-10-05T11:33:38.820Z,1.90
2022-10-05T11:36:15.390Z,1.73
2022-10-05T11:39:02.097Z,1.70
2022-10-05T11:41:54.543Z,1.73
2022-10-05T11:44:40.863Z,1.92
2022-10-05T11:47:14.141Z,1.90
2022-10-05T11:49:45.164Z,1.80
2022-10-05T11:52:16.835Z,1.90
2022-10-05T11:55:11.702Z,1.75
2022-10-05T11:57:43.614Z,1.60
2022-10-05T12:00:14.701Z,1.90
2022-10-05T12:02:57.817Z,1.77
2022-10-05T12:05:30.232Z,1.90
2022-10-05T12:08:03.455Z,1.77
2022-10-05T12:10:34.751Z,2.00
2022-10-05T12:13:05.978Z,1.50
2022-10-05T12:15:38.377Z,1.45
2022-10-05T12:18:08.340Z,1.95
2022-10-05T12:20:40.539Z,2.05
2022-10-05T12:23:11.801Z,1.50
2022-10-05T12:25:42.315Z,1.40
2022-10-05T12:28:11.900Z,1.52
2022-10-05T12:30:58.362Z,1.60
2022-10-05T12:33:28.682Z,1.45
2022-10-05T12:35:59.081Z,1.60
2022-10-05T12:40:59.394Z,1.30
2022-10-05T12:43:31.335Z,1.40
2022-10-05T12:46:03.799Z,1.40
2022-10-05T12:48:52.962Z,1.10
2022-10-05T12:51:25.198Z,1.00
2022-10-05T12:53:56.398Z,1.30
2022-10-05T12:56:31.608Z,1.30
2022-10-05T12:59:05.168Z,1.48
2022-10-05T13:01:37.013Z,1.60
2022-10-05T13:04:11.327Z,1.15
2022-10-05T13:06:42.285Z,1.00
2022-10-05T13:09:12.772Z,1.20
2022-10-05T13:11:43.417Z,1.10
2022-10-05T13:14:16.380Z,1.17
2022-10-05T13:16:54.717Z,1.20
2022-10-05T13:19:29.246Z,1.17
2022-10-05T13:22:05.728Z,1.35
2022-10-05T13:24:37.393Z,1.20
2022-10-05T13:27:09.445Z,1.15
2022-10-05T13:29:39.235Z,1.15
2022-10-05T13:32:08.287Z,1.10
2022-10-05T13:34:38.375Z,1.30
2022-10-05T13:37:13.307Z,1.30
2022-10-05T13:39:45.826Z,1.25
2022-10-05T13:42:16.182Z,1.25
2022-10-05T13:44:45.653Z,1.23
2022-10-05T13:47:16.696Z,1.42
2022-10-05T13:49:48.260Z,1.08
2022-10-05T13:52:21.387Z,1.20
2022-10-05T13:54:51.884Z,1.40
2022-10-05T13:57:26.106Z,1.35
2022-10-05T13:59:54.749Z,1.10
2022-10-05T14:02:23.912Z,1.30
2022-10-05T14:04:51.743Z,1.30
2022-10-05T14:07:31.732Z,1.55
2022-10-05T14:09:59.795Z,1.48
2022-10-05T14:12:28.090Z,1.20
2022-10-05T14:14:56.929Z,1.20
2022-10-05T14:17:37.408Z,1.25
2022-10-05T14:20:17.658Z,1.50
2022-10-05T14:22:49.016Z,1.40
2022-10-05T14:25:18.255Z,1.42
2022-10-05T14:27:50.129Z,1.42
2022-10-05T14:30:23.509Z,1.42
2022-10-05T14:32:52.288Z,1.40
2022-10-05T14:35:22.002Z,1.60
2022-10-05T14:37:52.664Z,1.77
2022-10-05T14:40:24.746Z,1.60
2022-10-05T14:42:52.174Z,1.70
2022-10-05T14:45:20.962Z,1.50
2022-10-05T14:47:50.150Z,1.42
2022-10-05T14:50:18.600Z,1.55
2022-10-05T14:52:51.789Z,1.63
2022-10-05T14:55:29.338Z,1.73
2022-10-05T14:58:03.288Z,1.63
2022-10-05T15:00:32.664Z,1.40
2022-10-05T15:03:06.233Z,1.42
2022-10-05T15:05:36.257Z,1.73
2022-10-05T15:08:09.622Z,2.10
2022-10-05T15:10:41.432Z,2.60
2022-10-05T15:13:11.802Z,1.80
2022-10-05T15:15:43.271Z,1.48
2022-10-05T15:18:15.840Z,1.55
2022-10-05T15:20:53.126Z,1.65
2022-10-05T15:23:24.805Z,1.73
2022-10-05T15:25:56.217Z,1.40
2022-10-05T15:28:31.787Z,1.70
2022-10-05T15:31:02.500Z,1.58
2022-10-05T15:33:32.176Z,1.70
2022-10-05T15:36:06.334Z,1.50
2022-10-05T15:38:38.369Z,1.33
2022-10-05T15:41:11.849Z,1.73
2022-10-05T15:43:46.607Z,1.50
2022-10-05T15:46:16.324Z,1.63
2022-10-05T15:48:49.064Z,1.60
2022-10-05T15:51:25.099Z,2.25
2022-10-05T15:54:16.724Z,2.70
2022-10-05T15:56:47.934Z,2.10
2022-10-05T15:59:23.064Z,1.60
2022-10-05T16:01:52.883Z,2.00
2022-10-05T16:04:24.012Z,1.80
2022-10-05T16:07:12.128Z,1.98
2022-10-05T16:09:47.095Z,1.55
2022-10-05T16:12:18.962Z,2.55
2022-10-05T16:14:55.884Z,2.00
2022-10-05T16:17:34.590Z,1.67
2022-10-05T16:20:08.144Z,1.92
2022-10-05T16:22:43.465Z,2.05
2022-10-05T16:25:14.682Z,1.92
2022-10-05T16:27:49.007Z,2.03
2022-10-05T16:30:18.093Z,1.80
2022-10-05T16:32:49.979Z,2.13
2022-10-05T16:35:21.479Z,2.20
2022-10-05T16:37:54.607Z,1.92
2022-10-05T16:40:28.304Z,2.05
2022-10-05T16:43:02.111Z,2.35
2022-10-05T16:45:45.347Z,2.15
2022-10-05T16:48:16.202Z,2.10
2022-10-05T16:50:47.370Z,2.38
2022-10-05T16:53:18.334Z,2.35
2022-10-05T16:55:48.128Z,2.33
2022-10-05T16:58:18.925Z,2.25
2022-10-05T17:00:52.430Z,2.65
2022-10-05T17:03:25.571Z,2.47
2022-10-05T17:05:58.847Z,2.45
2022-10-05T17:08:41.920Z,2.65
2022-10-05T17:11:16.983Z,2.47
2022-10-05T17:13:53.188Z,2.58
2022-10-05T17:16:22.921Z,2.40
2022-10-05T17:19:15.161Z,2.40
2022-10-05T17:21:44.669Z,2.25
2022-10-05T17:24:19.810Z,2.95
2022-10-05T17:26:56.085Z,2.80
2022-10-05T17:29:29.340Z,2.70
2022-10-05T17:32:09.299Z,2.50
2022-10-05T17:34:38.252Z,2.50
2022-10-05T17:37:19.667Z,2.58
2022-10-05T17:39:48.727Z,2.83
2022-10-05T17:42:35.200Z,3.00
2022-10-05T17:45:31.233Z,3.40
2022-10-05T17:47:59.302Z,3.03
2022-10-05T17:50:55.998Z,5.13
2022-10-05T17:53:58.800Z,6.22
2022-10-05T17:56:26.148Z,4.93
2022-10-05T17:58:57.600Z,7.55
2022-10-05T18:01:30.535Z,6.70
2022-10-05T18:04:18.410Z,4.50
2022-10-05T18:06:47.531Z,5.10
2022-10-05T18:09:39.040Z,4.15
2022-10-05T18:12:11.235Z,3.55
2022-10-05T18:14:56.567Z,3.28
2022-10-05T18:17:39.845Z,3.25
2022-10-05T18:20:19.022Z,3.25
2022-10-05T18:22:47.207Z,3.30
2022-10-05T18:25:22.586Z,2.97
2022-10-05T18:28:00.800Z,2.72
2022-10-05T18:30:31.013Z,3.00
2022-10-05T18:33:12.163Z,3.67
2022-10-05T18:35:45.370Z,3.13
2022-10-05T18:38:21.734Z,3.65
2022-10-05T18:40:52.460Z,3.65
2022-10-05T18:43:26.552Z,3.53
2022-10-05T18:46:08.930Z,3.72
2022-10-05T18:48:43.891Z,3.70
2022-10-05T18:51:16.531Z,3.33
2022-10-05T18:53:46.965Z,3.38
2022-10-05T18:56:19.056Z,3.53
2022-10-05T18:58:55.902Z,3.80
2022-10-05T19:01:35.147Z,3.30
2022-10-05T19:04:09.646Z,3.10
2022-10-05T19:06:41.618Z,4.47
2022-10-05T19:09:15.651Z,3.13
2022-10-05T19:11:46.808Z,2.97
2022-10-05T19:14:18.314Z,2.80
2022-10-05T19:16:52.226Z,2.90
2022-10-05T19:19:33.158Z,3.28
2022-10-05T19:22:03.926Z,2.90
2022-10-05T19:24:42.490Z,4.25
2022-10-05T19:27:12.820Z,3.33
2022-10-05T19:29:52.844Z,2.80
2022-10-05T19:32:26.743Z,3.10
2022-10-05T19:35:04.691Z,2.75
2022-10-05T19:37:35.615Z,2.90
2022-10-05T19:40:09.548Z,2.75
2022-10-05T19:42:46.092Z,2.38
2022-10-05T19:45:18.617Z,2.85
2022-10-05T19:47:49.446Z,2.50
2022-10-05T19:52:50.014Z,2.70
2022-10-05T19:55:19.425Z,2.72
2022-10-05T19:57:47.388Z,2.50
2022-10-05T20:00:20.532Z,2.20
2022-10-05T20:02:50.804Z,2.60
2022-10-05T20:05:18.513Z,2.50
2022-10-05T20:07:47.300Z,2.20
2022-10-05T20:10:24.416Z,2.40
2022-10-05T20:12:52.501Z,2.33
2022-10-05T20:15:38.904Z,2.30
2022-10-05T20:18:54.380Z,3.17
2022-10-05T20:21:38.335Z,2.20
2022-10-05T20:24:10.896Z,2.22
2022-10-05T20:26:56.650Z,2.42
2022-10-05T20:29:24.035Z,2.08
2022-10-05T20:31:51.379Z,2.92
2022-10-05T20:34:18.939Z,2.38
2022-10-05T20:36:47.270Z,2.13
2022-10-05T20:39:16.643Z,2.30
2022-10-05T20:41:44.052Z,2.78
2022-10-05T20:44:11.782Z,2.15
2022-10-05T20:46:41.607Z,2.67
2022-10-05T20:49:10.920Z,2.47
2022-10-05T20:51:38.760Z,1.92
2022-10-05T20:54:06.304Z,2.20
2022-10-05T20:56:35.024Z,2.10
2022-10-05T20:59:02.389Z,2.53
2022-10-05T21:01:31.885Z,2.13
2022-10-05T21:03:59.754Z,2.33
2022-10-05T21:06:28.040Z,2.10
2022-10-05T21:08:55.416Z,2.08
2022-10-05T21:11:22.786Z,2.70
2022-10-05T21:13:53.590Z,2.20
2022-10-05T21:18:49.011Z,2.55
2022-10-05T21:21:17.170Z,2.30
2022-10-05T21:23:45.140Z,2.60
2022-10-05T21:26:12.651Z,2.70
2022-10-05T21:28:40.185Z,2.38
2022-10-05T21:31:09.375Z,2.20
2022-10-05T21:33:37.086Z,2.30
2022-10-05T21:36:04.734Z,2.38
2022-10-05T21:38:32.105Z,2.97
2022-10-05T21:40:59.496Z,2.20
2022-10-05T21:43:27.214Z,6.13
2022-10-05T21:45:55.338Z,5.07
2022-10-05T21:48:24.229Z,4.00
2022-10-05T21:50:51.597Z,6.30
2022-10-05T21:53:20.366Z,3.83
2022-10-05T21:55:50.005Z,5.05
2022-10-05T21:58:18.255Z,3.22
2022-10-05T22:00:45.648Z,3.30
2022-10-05T22:03:13.083Z,2.70
2022-10-05T22:05:41.972Z,2.63
2022-10-05T22:08:18.655Z,2.55
2022-10-05T22:10:46.048Z,2.17
2022-10-05T22:13:13.385Z,2.33
2022-10-05T22:15:40.970Z,2.38
2022-10-05T22:18:13.790Z,2.55
2022-10-05T22:20:42.620Z,2.90
2022-10-05T22:23:09.969Z,2.55
2022-10-05T22:25:37.420Z,2.15
2022-10-05T22:28:05.691Z,2.08
2022-10-05T22:30:33.166Z,2.67
2022-10-05T22:33:00.486Z,2.58
2022-10-05T22:35:28.266Z,2.30
2022-10-05T22:37:56.928Z,2.50
2022-10-05T22:40:24.276Z,2.67
2022-10-05T22:42:53.159Z,2.85
2022-10-05T22:45:20.501Z,2.95
2022-10-05T22:47:48.003Z,2.65
2022-10-05T22:50:15.452Z,2.90
2022-10-05T22:52:43.465Z,2.30
2022-10-05T22:55:12.159Z,3.10
2022-10-05T22:57:40.150Z,3.15
2022-10-05T23:00:08.405Z,2.90
2022-10-05T23:02:36.890Z,3.35
2022-10-05T23:05:04.720Z,3.28
2022-10-05T23:07:36.000Z,2.75
2022-10-05T23:10:03.416Z,3.35
2022-10-05T23:12:32.528Z,3.28
2022-10-05T23:14:59.935Z,3.58
2022-10-05T23:17:27.705Z,3.13
2022-10-05T23:19:55.248Z,3.10
2022-10-05T23:22:23.568Z,3.20
2022-10-05T23:24:50.916Z,3.15
2022-10-05T23:27:18.390Z,3.78
2022-10-05T23:29:47.135Z,3.30
2022-10-05T23:32:14.523Z,2.75
2022-10-05T23:34:41.918Z,2.75
2022-10-05T23:37:09.443Z,2.70
2022-10-05T23:39:36.777Z,2.80
2022-10-05T23:42:05.028Z,2.60
2022-10-05T23:44:32.412Z,2.10
2022-10-05T23:47:01.166Z,2.75
2022-10-05T23:49:28.527Z,2.70
2022-10-05T23:51:55.981Z,2.67
2022-10-05T23:54:23.349Z,2.60
2022-10-05T23:56:50.674Z,2.75
2022-10-05T23:59:18.032Z,2.10
